sensor_id;sensor_type;location;lat;lon;timestamp;P1;durP1;ratioP1;P2;durP2;ratioP2
6269;SDS011;3168;51.684;6.954;2023-08-30T00:01:08;6.57;;;6.00;;
6269;SDS011;3168;51.684;6.954;2023-08-30T00:03:34;6.87;;;6.30;;
6269;SDS011;3168;51.684;6.954;2023-08-30T00:06:02;6.83;;;6.20;;
6269;SDS011;3168;51.684;6.954;2023-08-30T00:08:27;6.43;;;5.93;;
6269;SDS011;3168;51.684;6.954;2023-08-30T00:10:53;7.17;;;6.57;;
6269;SDS011;3168;51.684;6.954;2023-08-30T00:13:19;5.87;;;5.50;;
6269;SDS011;3168;51.684;6.954;2023-08-30T00:15:45;7.07;;;6.47;;
6269;SDS011;3168;51.684;6.954;2023-08-30T00:18:11;6.73;;;5.90;;
6269;SDS011;3168;51.684;6.954;2023-08-30T00:20:36;6.90;;;6.30;;
6269;SDS011;3168;51.684;6.954;2023-08-30T00:23:02;5.40;;;5.10;;
6269;SDS011;3168;51.684;6.954;2023-08-30T00:25:28;9.77;;;6.27;;
6269;SDS011;3168;51.684;6.954;2023-08-30T00:27:54;7.13;;;6.57;;
6269;SDS011;3168;51.684;6.954;2023-08-30T00:30:20;5.30;;;4.90;;
6269;SDS011;3168;51.684;6.954;2023-08-30T00:32:45;9.27;;;6.60;;
6269;SDS011;3168;51.684;6.954;2023-08-30T00:35:11;6.10;;;5.63;;
6269;SDS011;3168;51.684;6.954;2023-08-30T00:37:37;5.93;;;5.27;;
6269;SDS011;3168;51.684;6.954;2023-08-30T00:40:03;6.70;;;6.10;;
6269;SDS011;3168;51.684;6.954;2023-08-30T00:42:29;6.80;;;6.10;;
6269;SDS011;3168;51.684;6.954;2023-08-30T00:44:55;7.80;;;7.00;;
6269;SDS011;3168;51.684;6.954;2023-08-30T00:47:21;8.47;;;7.10;;
6269;SDS011;3168;51.684;6.954;2023-08-30T00:49:47;6.40;;;5.93;;
6269;SDS011;3168;51.684;6.954;2023-08-30T00:52:12;7.40;;;6.67;;
6269;SDS011;3168;51.684;6.954;2023-08-30T00:54:38;6.20;;;5.70;;
6269;SDS011;3168;51.684;6.954;2023-08-30T00:57:04;7.80;;;6.20;;
6269;SDS011;3168;51.684;6.954;2023-08-30T00:59:30;5.77;;;5.20;;
6269;SDS011;3168;51.684;6.954;2023-08-30T01:01:56;7.00;;;6.40;;
6269;SDS011;3168;51.684;6.954;2023-08-30T01:04:22;5.60;;;5.20;;
6269;SDS011;3168;51.684;6.954;2023-08-30T01:06:48;6.23;;;5.63;;
6269;SDS011;3168;51.684;6.954;2023-08-30T01:09:15;7.37;;;6.77;;
6269;SDS011;3168;51.684;6.954;2023-08-30T01:11:48;10.30;;;6.63;;
6269;SDS011;3168;51.684;6.954;2023-08-30T01:14:13;7.50;;;6.80;;
6269;SDS011;3168;51.684;6.954;2023-08-30T01:16:38;12.53;;;7.30;;
6269;SDS011;3168;51.684;6.954;2023-08-30T01:19:05;6.77;;;6.10;;
6269;SDS011;3168;51.684;6.954;2023-08-30T01:21:32;8.07;;;6.40;;
6269;SDS011;3168;51.684;6.954;2023-08-30T01:24:14;8.27;;;7.60;;
6269;SDS011;3168;51.684;6.954;2023-08-30T01:26:41;7.20;;;6.57;;
6269;SDS011;3168;51.684;6.954;2023-08-30T01:29:07;6.60;;;6.10;;
6269;SDS011;3168;51.684;6.954;2023-08-30T01:31:33;8.30;;;7.47;;
6269;SDS011;3168;51.684;6.954;2023-08-30T01:34:01;6.80;;;6.30;;
6269;SDS011;3168;51.684;6.954;2023-08-30T01:36:26;8.80;;;7.93;;
6269;SDS011;3168;51.684;6.954;2023-08-30T01:38:52;10.13;;;7.20;;
6269;SDS011;3168;51.684;6.954;2023-08-30T01:41:17;8.00;;;7.20;;
6269;SDS011;3168;51.684;6.954;2023-08-30T01:43:43;8.10;;;7.43;;
6269;SDS011;3168;51.684;6.954;2023-08-30T01:46:09;7.67;;;7.00;;
6269;SDS011;3168;51.684;6.954;2023-08-30T01:48:35;10.20;;;8.00;;
6269;SDS011;3168;51.684;6.954;2023-08-30T01:51:01;7.60;;;6.90;;
6269;SDS011;3168;51.684;6.954;2023-08-30T01:53:27;8.67;;;7.77;;
6269;SDS011;3168;51.684;6.954;2023-08-30T01:55:52;7.80;;;7.13;;
6269;SDS011;3168;51.684;6.954;2023-08-30T01:58:18;7.63;;;6.93;;
6269;SDS011;3168;51.684;6.954;2023-08-30T02:00:44;6.60;;;6.10;;
6269;SDS011;3168;51.684;6.954;2023-08-30T02:03:11;8.93;;;7.10;;
6269;SDS011;3168;51.684;6.954;2023-08-30T02:05:36;6.93;;;6.37;;
6269;SDS011;3168;51.684;6.954;2023-08-30T02:08:05;8.00;;;7.20;;
6269;SDS011;3168;51.684;6.954;2023-08-30T02:10:31;8.07;;;7.40;;
6269;SDS011;3168;51.684;6.954;2023-08-30T02:12:59;11.57;;;7.07;;
6269;SDS011;3168;51.684;6.954;2023-08-30T02:15:25;6.73;;;6.13;;
6269;SDS011;3168;51.684;6.954;2023-08-30T02:17:50;5.93;;;5.53;;
6269;SDS011;3168;51.684;6.954;2023-08-30T02:20:16;6.70;;;6.13;;
6269;SDS011;3168;51.684;6.954;2023-08-30T02:22:42;6.77;;;6.27;;
6269;SDS011;3168;51.684;6.954;2023-08-30T02:25:08;8.87;;;7.37;;
6269;SDS011;3168;51.684;6.954;2023-08-30T02:27:34;7.63;;;6.90;;
6269;SDS011;3168;51.684;6.954;2023-08-30T02:30:00;7.73;;;7.13;;
6269;SDS011;3168;51.684;6.954;2023-08-30T02:32:26;7.03;;;6.43;;
6269;SDS011;3168;51.684;6.954;2023-08-30T02:34:52;8.53;;;7.07;;
6269;SDS011;3168;51.684;6.954;2023-08-30T02:37:17;9.87;;;7.47;;
6269;SDS011;3168;51.684;6.954;2023-08-30T02:39:43;8.50;;;7.80;;
6269;SDS011;3168;51.684;6.954;2023-08-30T02:42:09;16.70;;;8.63;;
6269;SDS011;3168;51.684;6.954;2023-08-30T02:44:35;11.50;;;8.00;;
6269;SDS011;3168;51.684;6.954;2023-08-30T02:47:00;9.00;;;7.63;;
6269;SDS011;3168;51.684;6.954;2023-08-30T02:49:27;7.30;;;6.60;;
6269;SDS011;3168;51.684;6.954;2023-08-30T02:51:53;8.13;;;7.33;;
6269;SDS011;3168;51.684;6.954;2023-08-30T02:54:18;10.00;;;7.73;;
6269;SDS011;3168;51.684;6.954;2023-08-30T02:56:44;9.57;;;7.57;;
6269;SDS011;3168;51.684;6.954;2023-08-30T02:59:11;8.00;;;7.40;;
6269;SDS011;3168;51.684;6.954;2023-08-30T03:01:37;9.00;;;7.67;;
6269;SDS011;3168;51.684;6.954;2023-08-30T03:04:04;12.97;;;6.90;;
6269;SDS011;3168;51.684;6.954;2023-08-30T03:06:29;6.70;;;6.30;;
6269;SDS011;3168;51.684;6.954;2023-08-30T03:08:55;9.30;;;8.00;;
6269;SDS011;3168;51.684;6.954;2023-08-30T03:11:22;10.70;;;8.23;;
6269;SDS011;3168;51.684;6.954;2023-08-30T03:13:48;9.07;;;8.20;;
6269;SDS011;3168;51.684;6.954;2023-08-30T03:16:14;7.43;;;6.90;;
6269;SDS011;3168;51.684;6.954;2023-08-30T03:18:40;9.07;;;7.30;;
6269;SDS011;3168;51.684;6.954;2023-08-30T03:21:06;12.20;;;8.07;;
6269;SDS011;3168;51.684;6.954;2023-08-30T03:23:31;12.20;;;8.25;;
6269;SDS011;3168;51.684;6.954;2023-08-30T03:25:58;8.67;;;7.77;;
6269;SDS011;3168;51.684;6.954;2023-08-30T03:28:24;10.13;;;9.07;;
6269;SDS011;3168;51.684;6.954;2023-08-30T03:30:50;8.90;;;8.00;;
6269;SDS011;3168;51.684;6.954;2023-08-30T03:33:16;9.87;;;8.87;;
6269;SDS011;3168;51.684;6.954;2023-08-30T03:35:41;8.53;;;7.67;;
6269;SDS011;3168;51.684;6.954;2023-08-30T03:38:07;7.83;;;7.10;;
6269;SDS011;3168;51.684;6.954;2023-08-30T03:40:33;11.60;;;10.20;;
6269;SDS011;3168;51.684;6.954;2023-08-30T03:43:07;11.90;;;9.53;;
6269;SDS011;3168;51.684;6.954;2023-08-30T03:45:35;10.80;;;9.57;;
6269;SDS011;3168;51.684;6.954;2023-08-30T03:48:01;16.10;;;11.60;;
6269;SDS011;3168;51.684;6.954;2023-08-30T03:50:26;17.27;;;11.53;;
6269;SDS011;3168;51.684;6.954;2023-08-30T03:52:53;13.37;;;10.53;;
6269;SDS011;3168;51.684;6.954;2023-08-30T03:55:19;12.47;;;9.97;;
6269;SDS011;3168;51.684;6.954;2023-08-30T03:57:45;11.70;;;9.90;;
6269;SDS011;3168;51.684;6.954;2023-08-30T04:00:11;12.67;;;11.23;;
6269;SDS011;3168;51.684;6.954;2023-08-30T04:02:38;11.73;;;10.53;;
6269;SDS011;3168;51.684;6.954;2023-08-30T04:05:03;15.87;;;12.37;;
6269;SDS011;3168;51.684;6.954;2023-08-30T04:07:29;15.40;;;11.23;;
6269;SDS011;3168;51.684;6.954;2023-08-30T04:09:56;16.10;;;10.73;;
6269;SDS011;3168;51.684;6.954;2023-08-30T04:12:22;14.63;;;11.73;;
6269;SDS011;3168;51.684;6.954;2023-08-30T04:14:47;19.53;;;10.83;;
6269;SDS011;3168;51.684;6.954;2023-08-30T04:17:14;12.60;;;11.30;;
6269;SDS011;3168;51.684;6.954;2023-08-30T04:19:40;12.47;;;10.60;;
6269;SDS011;3168;51.684;6.954;2023-08-30T04:22:06;14.50;;;11.73;;
6269;SDS011;3168;51.684;6.954;2023-08-30T04:24:32;11.10;;;10.10;;
6269;SDS011;3168;51.684;6.954;2023-08-30T04:26:59;10.37;;;8.97;;
6269;SDS011;3168;51.684;6.954;2023-08-30T04:29:25;13.53;;;11.60;;
6269;SDS011;3168;51.684;6.954;2023-08-30T04:31:51;13.50;;;11.27;;
6269;SDS011;3168;51.684;6.954;2023-08-30T04:34:16;16.50;;;10.37;;
6269;SDS011;3168;51.684;6.954;2023-08-30T04:36:42;12.03;;;10.53;;
6269;SDS011;3168;51.684;6.954;2023-08-30T04:39:08;14.67;;;11.77;;
6269;SDS011;3168;51.684;6.954;2023-08-30T04:41:34;11.80;;;10.07;;
6269;SDS011;3168;51.684;6.954;2023-08-30T04:44:00;15.60;;;11.87;;
6269;SDS011;3168;51.684;6.954;2023-08-30T04:46:25;17.00;;;11.37;;
6269;SDS011;3168;51.684;6.954;2023-08-30T04:48:51;12.00;;;10.50;;
6269;SDS011;3168;51.684;6.954;2023-08-30T04:51:17;19.80;;;13.60;;
6269;SDS011;3168;51.684;6.954;2023-08-30T04:53:43;13.97;;;9.60;;
6269;SDS011;3168;51.684;6.954;2023-08-30T04:56:10;21.60;;;11.20;;
6269;SDS011;3168;51.684;6.954;2023-08-30T04:58:35;18.80;;;12.17;;
6269;SDS011;3168;51.684;6.954;2023-08-30T05:01:01;27.17;;;14.43;;
6269;SDS011;3168;51.684;6.954;2023-08-30T05:03:27;44.63;;;11.80;;
6269;SDS011;3168;51.684;6.954;2023-08-30T05:05:53;15.60;;;12.10;;
6269;SDS011;3168;51.684;6.954;2023-08-30T05:08:19;22.37;;;12.43;;
6269;SDS011;3168;51.684;6.954;2023-08-30T05:10:44;18.33;;;12.83;;
6269;SDS011;3168;51.684;6.954;2023-08-30T05:13:10;20.20;;;13.10;;
6269;SDS011;3168;51.684;6.954;2023-08-30T05:15:36;19.70;;;12.90;;
6269;SDS011;3168;51.684;6.954;2023-08-30T05:18:02;23.57;;;13.33;;
6269;SDS011;3168;51.684;6.954;2023-08-30T05:20:28;19.67;;;14.07;;
6269;SDS011;3168;51.684;6.954;2023-08-30T05:22:54;16.30;;;12.60;;
6269;SDS011;3168;51.684;6.954;2023-08-30T05:25:21;19.20;;;11.90;;
6269;SDS011;3168;51.684;6.954;2023-08-30T05:27:46;16.43;;;12.40;;
6269;SDS011;3168;51.684;6.954;2023-08-30T05:30:12;21.20;;;15.47;;
6269;SDS011;3168;51.684;6.954;2023-08-30T05:32:38;18.70;;;13.63;;
6269;SDS011;3168;51.684;6.954;2023-08-30T05:35:05;29.27;;;14.53;;
6269;SDS011;3168;51.684;6.954;2023-08-30T05:37:31;39.83;;;14.90;;
6269;SDS011;3168;51.684;6.954;2023-08-30T05:39:57;22.90;;;16.10;;
6269;SDS011;3168;51.684;6.954;2023-08-30T05:42:23;19.27;;;13.57;;
6269;SDS011;3168;51.684;6.954;2023-08-30T05:44:49;17.20;;;13.80;;
6269;SDS011;3168;51.684;6.954;2023-08-30T05:47:14;24.73;;;14.47;;
6269;SDS011;3168;51.684;6.954;2023-08-30T05:49:40;25.30;;;14.17;;
6269;SDS011;3168;51.684;6.954;2023-08-30T05:52:06;20.57;;;15.50;;
6269;SDS011;3168;51.684;6.954;2023-08-30T05:54:32;20.60;;;14.30;;
6269;SDS011;3168;51.684;6.954;2023-08-30T05:56:58;21.03;;;15.27;;
6269;SDS011;3168;51.684;6.954;2023-08-30T05:59:23;22.00;;;14.63;;
6269;SDS011;3168;51.684;6.954;2023-08-30T06:01:49;22.83;;;14.33;;
6269;SDS011;3168;51.684;6.954;2023-08-30T06:04:16;18.10;;;13.60;;
6269;SDS011;3168;51.684;6.954;2023-08-30T06:06:42;19.93;;;15.27;;
6269;SDS011;3168;51.684;6.954;2023-08-30T06:09:08;26.33;;;15.07;;
6269;SDS011;3168;51.684;6.954;2023-08-30T06:11:34;27.03;;;14.77;;
6269;SDS011;3168;51.684;6.954;2023-08-30T06:14:00;25.33;;;16.00;;
6269;SDS011;3168;51.684;6.954;2023-08-30T06:16:26;18.20;;;13.30;;
6269;SDS011;3168;51.684;6.954;2023-08-30T06:18:51;18.27;;;13.47;;
6269;SDS011;3168;51.684;6.954;2023-08-30T06:21:17;32.27;;;18.40;;
6269;SDS011;3168;51.684;6.954;2023-08-30T06:23:43;22.10;;;14.20;;
6269;SDS011;3168;51.684;6.954;2023-08-30T06:26:09;18.20;;;13.70;;
6269;SDS011;3168;51.684;6.954;2023-08-30T06:28:35;23.53;;;15.00;;
6269;SDS011;3168;51.684;6.954;2023-08-30T06:31:00;26.40;;;15.90;;
6269;SDS011;3168;51.684;6.954;2023-08-30T06:33:26;26.73;;;15.63;;
6269;SDS011;3168;51.684;6.954;2023-08-30T06:35:52;18.07;;;13.43;;
6269;SDS011;3168;51.684;6.954;2023-08-30T06:38:18;38.47;;;16.33;;
6269;SDS011;3168;51.684;6.954;2023-08-30T06:40:44;18.30;;;13.73;;
6269;SDS011;3168;51.684;6.954;2023-08-30T06:43:10;26.80;;;16.13;;
6269;SDS011;3168;51.684;6.954;2023-08-30T06:45:35;25.07;;;13.47;;
6269;SDS011;3168;51.684;6.954;2023-08-30T06:48:01;18.20;;;13.43;;
6269;SDS011;3168;51.684;6.954;2023-08-30T06:50:27;16.50;;;12.37;;
6269;SDS011;3168;51.684;6.954;2023-08-30T06:52:53;22.93;;;12.43;;
6269;SDS011;3168;51.684;6.954;2023-08-30T06:55:19;17.53;;;13.53;;
6269;SDS011;3168;51.684;6.954;2023-08-30T06:57:47;12.37;;;11.07;;
6269;SDS011;3168;51.684;6.954;2023-08-30T07:00:11;16.80;;;11.27;;
6269;SDS011;3168;51.684;6.954;2023-08-30T07:02:37;22.90;;;13.40;;
6269;SDS011;3168;51.684;6.954;2023-08-30T07:05:03;27.70;;;12.47;;
6269;SDS011;3168;51.684;6.954;2023-08-30T07:07:30;15.10;;;10.33;;
6269;SDS011;3168;51.684;6.954;2023-08-30T07:09:56;17.40;;;12.37;;
6269;SDS011;3168;51.684;6.954;2023-08-30T07:12:23;13.40;;;11.00;;
6269;SDS011;3168;51.684;6.954;2023-08-30T07:14:49;25.70;;;12.50;;
6269;SDS011;3168;51.684;6.954;2023-08-30T07:17:14;13.40;;;10.80;;
6269;SDS011;3168;51.684;6.954;2023-08-30T07:19:40;15.37;;;11.63;;
6269;SDS011;3168;51.684;6.954;2023-08-30T07:22:06;24.20;;;10.83;;
6269;SDS011;3168;51.684;6.954;2023-08-30T07:24:32;20.90;;;12.30;;
6269;SDS011;3168;51.684;6.954;2023-08-30T07:26:58;21.80;;;13.20;;
6269;SDS011;3168;51.684;6.954;2023-08-30T07:29:24;16.33;;;11.73;;
6269;SDS011;3168;51.684;6.954;2023-08-30T07:31:50;11.40;;;10.40;;
6269;SDS011;3168;51.684;6.954;2023-08-30T07:34:16;14.47;;;10.80;;
6269;SDS011;3168;51.684;6.954;2023-08-30T07:36:42;12.30;;;10.63;;
6269;SDS011;3168;51.684;6.954;2023-08-30T07:39:08;17.37;;;11.03;;
6269;SDS011;3168;51.684;6.954;2023-08-30T07:41:34;19.10;;;12.97;;
6269;SDS011;3168;51.684;6.954;2023-08-30T07:44:00;17.50;;;12.40;;
6269;SDS011;3168;51.684;6.954;2023-08-30T07:46:25;17.33;;;11.60;;
6269;SDS011;3168;51.684;6.954;2023-08-30T07:48:51;21.80;;;11.67;;
6269;SDS011;3168;51.684;6.954;2023-08-30T07:51:18;13.90;;;11.23;;
6269;SDS011;3168;51.684;6.954;2023-08-30T07:53:44;20.70;;;12.10;;
6269;SDS011;3168;51.684;6.954;2023-08-30T07:56:11;12.77;;;10.27;;
6269;SDS011;3168;51.684;6.954;2023-08-30T07:58:40;9.77;;;8.97;;
6269;SDS011;3168;51.684;6.954;2023-08-30T08:01:04;14.80;;;8.90;;
6269;SDS011;3168;51.684;6.954;2023-08-30T08:03:31;11.73;;;10.50;;
6269;SDS011;3168;51.684;6.954;2023-08-30T08:05:58;15.23;;;8.63;;
6269;SDS011;3168;51.684;6.954;2023-08-30T08:08:24;8.40;;;7.70;;
6269;SDS011;3168;51.684;6.954;2023-08-30T08:10:50;16.90;;;9.20;;
6269;SDS011;3168;51.684;6.954;2023-08-30T08:13:17;14.57;;;9.20;;
6269;SDS011;3168;51.684;6.954;2023-08-30T08:15:43;9.13;;;7.73;;
6269;SDS011;3168;51.684;6.954;2023-08-30T08:18:09;11.00;;;7.67;;
6269;SDS011;3168;51.684;6.954;2023-08-30T08:20:35;8.93;;;8.13;;
6269;SDS011;3168;51.684;6.954;2023-08-30T08:23:02;10.93;;;7.60;;
6269;SDS011;3168;51.684;6.954;2023-08-30T08:25:29;10.33;;;8.20;;
6269;SDS011;3168;51.684;6.954;2023-08-30T08:27:55;8.97;;;6.43;;
6269;SDS011;3168;51.684;6.954;2023-08-30T08:30:21;8.50;;;7.33;;
6269;SDS011;3168;51.684;6.954;2023-08-30T08:32:46;10.00;;;7.33;;
6269;SDS011;3168;51.684;6.954;2023-08-30T08:35:13;7.40;;;6.40;;
6269;SDS011;3168;51.684;6.954;2023-08-30T08:37:39;8.67;;;7.20;;
6269;SDS011;3168;51.684;6.954;2023-08-30T08:40:05;6.60;;;6.10;;
6269;SDS011;3168;51.684;6.954;2023-08-30T08:42:32;7.97;;;6.63;;
6269;SDS011;3168;51.684;6.954;2023-08-30T08:44:58;6.67;;;5.57;;
6269;SDS011;3168;51.684;6.954;2023-08-30T08:47:24;11.60;;;5.83;;
6269;SDS011;3168;51.684;6.954;2023-08-30T08:49:50;5.63;;;5.23;;
6269;SDS011;3168;51.684;6.954;2023-08-30T08:52:16;6.30;;;4.93;;
6269;SDS011;3168;51.684;6.954;2023-08-30T08:54:41;5.53;;;5.10;;
6269;SDS011;3168;51.684;6.954;2023-08-30T08:57:07;14.00;;;8.67;;
6269;SDS011;3168;51.684;6.954;2023-08-30T08:59:33;5.80;;;5.30;;
6269;SDS011;3168;51.684;6.954;2023-08-30T09:02:01;5.90;;;4.53;;
6269;SDS011;3168;51.684;6.954;2023-08-30T09:04:26;5.10;;;4.37;;
6269;SDS011;3168;51.684;6.954;2023-08-30T09:06:52;4.60;;;4.30;;
6269;SDS011;3168;51.684;6.954;2023-08-30T09:09:18;3.70;;;3.60;;
6269;SDS011;3168;51.684;6.954;2023-08-30T09:11:44;4.80;;;3.73;;
6269;SDS011;3168;51.684;6.954;2023-08-30T09:14:09;3.50;;;3.30;;
6269;SDS011;3168;51.684;6.954;2023-08-30T09:16:35;4.50;;;3.70;;
6269;SDS011;3168;51.684;6.954;2023-08-30T09:19:02;4.00;;;3.70;;
6269;SDS011;3168;51.684;6.954;2023-08-30T09:21:27;6.30;;;3.60;;
6269;SDS011;3168;51.684;6.954;2023-08-30T09:24:01;6.87;;;4.00;;
6269;SDS011;3168;51.684;6.954;2023-08-30T09:26:27;6.63;;;3.80;;
6269;SDS011;3168;51.684;6.954;2023-08-30T09:28:53;4.60;;;4.17;;
6269;SDS011;3168;51.684;6.954;2023-08-30T09:31:20;8.57;;;4.20;;
6269;SDS011;3168;51.684;6.954;2023-08-30T09:33:45;3.97;;;3.67;;
6269;SDS011;3168;51.684;6.954;2023-08-30T09:36:11;6.47;;;4.50;;
6269;SDS011;3168;51.684;6.954;2023-08-30T09:38:38;3.87;;;3.67;;
6269;SDS011;3168;51.684;6.954;2023-08-30T09:41:04;13.43;;;5.30;;
6269;SDS011;3168;51.684;6.954;2023-08-30T09:43:31;3.77;;;3.57;;
6269;SDS011;3168;51.684;6.954;2023-08-30T09:45:56;5.97;;;5.37;;
6269;SDS011;3168;51.684;6.954;2023-08-30T09:48:22;6.00;;;4.40;;
6269;SDS011;3168;51.684;6.954;2023-08-30T09:50:48;4.60;;;3.97;;
6269;SDS011;3168;51.684;6.954;2023-08-30T09:53:13;5.43;;;5.13;;
6269;SDS011;3168;51.684;6.954;2023-08-30T09:55:39;4.33;;;4.03;;
6269;SDS011;3168;51.684;6.954;2023-08-30T09:58:05;5.77;;;4.53;;
6269;SDS011;3168;51.684;6.954;2023-08-30T10:00:32;6.60;;;5.00;;
6269;SDS011;3168;51.684;6.954;2023-08-30T10:02:58;5.00;;;4.70;;
6269;SDS011;3168;51.684;6.954;2023-08-30T10:05:23;4.50;;;4.10;;
6269;SDS011;3168;51.684;6.954;2023-08-30T10:07:49;3.37;;;3.17;;
6269;SDS011;3168;51.684;6.954;2023-08-30T10:10:15;9.97;;;4.63;;
6269;SDS011;3168;51.684;6.954;2023-08-30T10:12:40;4.93;;;4.60;;
6269;SDS011;3168;51.684;6.954;2023-08-30T10:15:07;5.87;;;5.50;;
6269;SDS011;3168;51.684;6.954;2023-08-30T10:17:33;4.90;;;4.50;;
6269;SDS011;3168;51.684;6.954;2023-08-30T10:20:01;6.33;;;5.10;;
6269;SDS011;3168;51.684;6.954;2023-08-30T10:22:25;6.40;;;5.80;;
6269;SDS011;3168;51.684;6.954;2023-08-30T10:24:54;7.23;;;5.90;;
6269;SDS011;3168;51.684;6.954;2023-08-30T10:27:20;6.33;;;5.77;;
6269;SDS011;3168;51.684;6.954;2023-08-30T10:29:46;7.23;;;6.60;;
6269;SDS011;3168;51.684;6.954;2023-08-30T10:32:12;6.07;;;5.63;;
6269;SDS011;3168;51.684;6.954;2023-08-30T10:34:38;7.23;;;6.53;;
6269;SDS011;3168;51.684;6.954;2023-08-30T10:37:06;7.47;;;6.70;;
6269;SDS011;3168;51.684;6.954;2023-08-30T10:39:37;6.90;;;6.37;;
6269;SDS011;3168;51.684;6.954;2023-08-30T10:42:07;8.47;;;7.57;;
6269;SDS011;3168;51.684;6.954;2023-08-30T10:44:34;7.87;;;7.03;;
6269;SDS011;3168;51.684;6.954;2023-08-30T10:47:01;9.07;;;7.67;;
6269;SDS011;3168;51.684;6.954;2023-08-30T10:49:25;19.33;;;8.80;;
6269;SDS011;3168;51.684;6.954;2023-08-30T10:51:55;6.90;;;6.27;;
6269;SDS011;3168;51.684;6.954;2023-08-30T10:54:20;10.10;;;8.27;;
6269;SDS011;3168;51.684;6.954;2023-08-30T10:56:47;8.57;;;7.67;;
6269;SDS011;3168;51.684;6.954;2023-08-30T10:59:21;6.53;;;6.10;;
6269;SDS011;3168;51.684;6.954;2023-08-30T11:01:47;13.43;;;8.13;;
6269;SDS011;3168;51.684;6.954;2023-08-30T11:04:14;9.23;;;8.30;;
6269;SDS011;3168;51.684;6.954;2023-08-30T11:06:40;11.80;;;9.20;;
6269;SDS011;3168;51.684;6.954;2023-08-30T11:09:07;10.77;;;9.20;;
6269;SDS011;3168;51.684;6.954;2023-08-30T11:11:33;14.60;;;9.27;;
6269;SDS011;3168;51.684;6.954;2023-08-30T11:14:07;8.30;;;7.47;;
6269;SDS011;3168;51.684;6.954;2023-08-30T11:16:33;8.57;;;7.80;;
6269;SDS011;3168;51.684;6.954;2023-08-30T11:19:01;13.53;;;8.43;;
6269;SDS011;3168;51.684;6.954;2023-08-30T11:21:27;8.13;;;7.50;;
6269;SDS011;3168;51.684;6.954;2023-08-30T11:23:54;10.30;;;7.20;;
6269;SDS011;3168;51.684;6.954;2023-08-30T11:26:19;7.95;;;7.25;;
6269;SDS011;3168;51.684;6.954;2023-08-30T11:28:45;10.53;;;6.60;;
6269;SDS011;3168;51.684;6.954;2023-08-30T11:31:17;6.50;;;5.43;;
6269;SDS011;3168;51.684;6.954;2023-08-30T11:33:49;6.53;;;6.03;;
6269;SDS011;3168;51.684;6.954;2023-08-30T11:36:15;4.60;;;4.20;;
6269;SDS011;3168;51.684;6.954;2023-08-30T11:38:41;5.70;;;4.93;;
6269;SDS011;3168;51.684;6.954;2023-08-30T11:41:07;6.83;;;5.03;;
6269;SDS011;3168;51.684;6.954;2023-08-30T11:43:33;5.77;;;5.37;;
6269;SDS011;3168;51.684;6.954;2023-08-30T11:45:59;6.13;;;5.53;;
6269;SDS011;3168;51.684;6.954;2023-08-30T11:48:24;6.50;;;6.00;;
6269;SDS011;3168;51.684;6.954;2023-08-30T11:50:50;10.33;;;5.77;;
6269;SDS011;3168;51.684;6.954;2023-08-30T11:53:17;6.77;;;6.17;;
6269;SDS011;3168;51.684;6.954;2023-08-30T11:55:43;5.73;;;5.33;;
6269;SDS011;3168;51.684;6.954;2023-08-30T11:58:09;5.33;;;5.10;;
6269;SDS011;3168;51.684;6.954;2023-08-30T12:00:35;6.50;;;5.50;;
6269;SDS011;3168;51.684;6.954;2023-08-30T12:03:01;5.00;;;4.60;;
6269;SDS011;3168;51.684;6.954;2023-08-30T12:05:26;5.90;;;5.50;;
6269;SDS011;3168;51.684;6.954;2023-08-30T12:07:52;4.43;;;4.03;;
6269;SDS011;3168;51.684;6.954;2023-08-30T12:10:18;4.90;;;4.43;;
6269;SDS011;3168;51.684;6.954;2023-08-30T12:12:44;4.80;;;4.10;;
6269;SDS011;3168;51.684;6.954;2023-08-30T12:15:10;5.57;;;5.00;;
6269;SDS011;3168;51.684;6.954;2023-08-30T12:17:36;5.27;;;4.97;;
6269;SDS011;3168;51.684;6.954;2023-08-30T12:20:02;8.23;;;4.70;;
6269;SDS011;3168;51.684;6.954;2023-08-30T12:25:01;4.50;;;4.23;;
6269;SDS011;3168;51.684;6.954;2023-08-30T12:27:27;4.00;;;3.80;;
6269;SDS011;3168;51.684;6.954;2023-08-30T12:29:53;4.00;;;3.80;;
6269;SDS011;3168;51.684;6.954;2023-08-30T12:32:19;5.10;;;4.70;;
6269;SDS011;3168;51.684;6.954;2023-08-30T12:34:45;4.37;;;4.07;;
6269;SDS011;3168;51.684;6.954;2023-08-30T12:37:11;4.33;;;3.80;;
6269;SDS011;3168;51.684;6.954;2023-08-30T12:39:37;5.00;;;4.63;;
6269;SDS011;3168;51.684;6.954;2023-08-30T12:42:03;5.70;;;5.20;;
6269;SDS011;3168;51.684;6.954;2023-08-30T12:44:30;14.37;;;10.17;;
6269;SDS011;3168;51.684;6.954;2023-08-30T12:46:55;4.00;;;3.80;;
6269;SDS011;3168;51.684;6.954;2023-08-30T12:49:21;7.03;;;5.60;;
6269;SDS011;3168;51.684;6.954;2023-08-30T12:51:47;5.47;;;5.17;;
6269;SDS011;3168;51.684;6.954;2023-08-30T12:54:13;5.40;;;5.00;;
6269;SDS011;3168;51.684;6.954;2023-08-30T12:56:39;4.47;;;4.27;;
6269;SDS011;3168;51.684;6.954;2023-08-30T12:59:04;3.80;;;3.50;;
6269;SDS011;3168;51.684;6.954;2023-08-30T13:01:30;4.10;;;4.00;;
6269;SDS011;3168;51.684;6.954;2023-08-30T13:03:56;3.80;;;3.60;;
6269;SDS011;3168;51.684;6.954;2023-08-30T13:06:22;4.60;;;4.30;;
6269;SDS011;3168;51.684;6.954;2023-08-30T13:08:48;4.27;;;4.17;;
6269;SDS011;3168;51.684;6.954;2023-08-30T13:11:13;5.37;;;4.00;;
6269;SDS011;3168;51.684;6.954;2023-08-30T13:13:40;4.37;;;4.07;;
6269;SDS011;3168;51.684;6.954;2023-08-30T13:16:06;4.70;;;4.40;;
6269;SDS011;3168;51.684;6.954;2023-08-30T13:18:32;4.53;;;4.17;;
6269;SDS011;3168;51.684;6.954;2023-08-30T13:20:58;6.30;;;5.80;;
6269;SDS011;3168;51.684;6.954;2023-08-30T13:23:24;3.90;;;3.70;;
6269;SDS011;3168;51.684;6.954;2023-08-30T13:25:50;4.33;;;4.07;;
6269;SDS011;3168;51.684;6.954;2023-08-30T13:28:16;5.20;;;4.77;;
6269;SDS011;3168;51.684;6.954;2023-08-30T13:30:44;5.03;;;4.73;;
6269;SDS011;3168;51.684;6.954;2023-08-30T13:33:10;5.10;;;4.70;;
6269;SDS011;3168;51.684;6.954;2023-08-30T13:35:38;6.23;;;5.30;;
6269;SDS011;3168;51.684;6.954;2023-08-30T13:38:02;7.10;;;6.40;;
6269;SDS011;3168;51.684;6.954;2023-08-30T13:40:29;5.30;;;5.00;;
6269;SDS011;3168;51.684;6.954;2023-08-30T13:42:54;6.60;;;6.00;;
6269;SDS011;3168;51.684;6.954;2023-08-30T13:45:20;6.70;;;6.00;;
6269;SDS011;3168;51.684;6.954;2023-08-30T13:47:46;7.20;;;4.80;;
6269;SDS011;3168;51.684;6.954;2023-08-30T13:50:13;5.30;;;5.10;;
6269;SDS011;3168;51.684;6.954;2023-08-30T13:52:38;7.73;;;6.97;;
6269;SDS011;3168;51.684;6.954;2023-08-30T13:55:04;7.10;;;6.37;;
6269;SDS011;3168;51.684;6.954;2023-08-30T13:57:30;6.77;;;6.13;;
6269;SDS011;3168;51.684;6.954;2023-08-30T13:59:56;6.90;;;6.23;;
6269;SDS011;3168;51.684;6.954;2023-08-30T14:02:22;11.00;;;7.40;;
6269;SDS011;3168;51.684;6.954;2023-08-30T14:04:48;11.63;;;6.63;;
6269;SDS011;3168;51.684;6.954;2023-08-30T14:07:15;6.43;;;6.10;;
6269;SDS011;3168;51.684;6.954;2023-08-30T14:09:41;6.63;;;6.00;;
6269;SDS011;3168;51.684;6.954;2023-08-30T14:12:07;5.30;;;4.90;;
6269;SDS011;3168;51.684;6.954;2023-08-30T14:14:33;6.60;;;6.13;;
6269;SDS011;3168;51.684;6.954;2023-08-30T14:16:58;4.80;;;4.27;;
6269;SDS011;3168;51.684;6.954;2023-08-30T14:19:24;10.27;;;6.10;;
6269;SDS011;3168;51.684;6.954;2023-08-30T14:21:50;5.77;;;5.23;;
6269;SDS011;3168;51.684;6.954;2023-08-30T14:24:17;5.70;;;5.20;;
6269;SDS011;3168;51.684;6.954;2023-08-30T14:26:43;5.50;;;5.15;;
6269;SDS011;3168;51.684;6.954;2023-08-30T14:29:09;5.17;;;4.67;;
6269;SDS011;3168;51.684;6.954;2023-08-30T14:31:35;5.20;;;4.87;;
6269;SDS011;3168;51.684;6.954;2023-08-30T14:34:01;5.40;;;5.10;;
6269;SDS011;3168;51.684;6.954;2023-08-30T14:36:26;5.43;;;4.90;;
6269;SDS011;3168;51.684;6.954;2023-08-30T14:38:52;5.57;;;5.07;;
6269;SDS011;3168;51.684;6.954;2023-08-30T14:41:18;5.90;;;5.40;;
6269;SDS011;3168;51.684;6.954;2023-08-30T14:43:44;6.00;;;5.27;;
6269;SDS011;3168;51.684;6.954;2023-08-30T14:46:10;7.30;;;5.60;;
6269;SDS011;3168;51.684;6.954;2023-08-30T14:48:35;4.93;;;4.40;;
6269;SDS011;3168;51.684;6.954;2023-08-30T14:51:01;5.33;;;4.83;;
6269;SDS011;3168;51.684;6.954;2023-08-30T14:53:27;5.63;;;5.13;;
6269;SDS011;3168;51.684;6.954;2023-08-30T14:55:53;4.57;;;4.17;;
6269;SDS011;3168;51.684;6.954;2023-08-30T14:58:19;4.87;;;4.53;;
6269;SDS011;3168;51.684;6.954;2023-08-30T15:00:47;4.53;;;4.23;;